Decoded Metar for LFRG (DEAUVILLE in FRANCE) (IATA:DOL) | Meteo·Mobile Aviation Weather
aviador You're here:

LFRG Decoded Metar

DEAUVILLE in FRANCE
Report Time2019-07-16 09:30:00
UTC Time2019-07-16 10:02:12
Flight Rules vfr VFR
Wind010° at 05 kt
W.Decomp.*RWY 30: 1.6 kt HW 4.7 kt RCW
Visibility9999 m
Phenomena:N/A
Clouds:Scattered 027 Hf
Expected CloudBase > 2,400 ft AGL from Temp-Dew spread
CeilingNone
Temp19°C (ISA +5)
Dew Point13°C (68% RH)
AAT18.1°C
QNH1020 hPa
Density Alt1,027 ft
Elevation479 ft
Report Wrong Elevation
Raw Report
LFRG 160930Z AUTO 01005KT 320V050 9999 SCT027 19/13 Q1020
NOSIG=

Extra information for LFRG:More info

Metar Taf Metar & Taf Last 4 Metars F.Rules Stats Wind Profile Meteogram Temp Stats Airport Information Weather charts Add Link Nearby VenuesMetar ALERT Operation Metar Decoded Social comments